createdAt,value
2022-12-26T00:00:08.537Z,90
2022-12-26T00:01:07.873Z,90
2022-12-26T00:02:08.382Z,90
2022-12-26T00:03:08.620Z,90
2022-12-26T00:04:53.472Z,90
2022-12-26T00:06:07.942Z,90
2022-12-26T00:07:08.346Z,90
2022-12-26T00:08:07.985Z,90
2022-12-26T00:09:08.380Z,90
2022-12-26T00:10:08.580Z,90
2022-12-26T00:11:08.453Z,90
2022-12-26T00:12:08.281Z,90
2022-12-26T00:13:45.943Z,90
2022-12-26T00:15:08.687Z,90
2022-12-26T00:16:07.831Z,90
2022-12-26T00:17:08.317Z,90
2022-12-26T00:18:07.866Z,90
2022-12-26T00:20:07.632Z,90
2022-12-26T00:21:07.866Z,90
2022-12-26T00:22:07.893Z,90
2022-12-26T00:23:08.475Z,90
2022-12-26T00:24:08.658Z,90
2022-12-26T00:30:08.336Z,90
2022-12-26T00:31:08.493Z,90
2022-12-26T00:32:07.929Z,90
2022-12-26T00:33:08.331Z,90
2022-12-26T00:34:07.966Z,90
2022-12-26T00:35:08.607Z,90
2022-12-26T00:36:08.532Z,90
2022-12-26T00:37:08.384Z,90
2022-12-26T00:40:08.367Z,90
2022-12-26T00:41:07.770Z,90
2022-12-26T00:42:08.648Z,90
2022-12-26T00:43:08.220Z,90
2022-12-26T00:44:07.734Z,90
2022-12-26T00:45:08.270Z,90
2022-12-26T00:46:08.699Z,90
2022-12-26T00:47:08.879Z,90
2022-12-26T00:48:08.142Z,90
2022-12-26T00:52:07.752Z,89
2022-12-26T00:53:07.957Z,89
2022-12-26T00:54:08.697Z,89
2022-12-26T00:55:08.172Z,89
2022-12-26T00:58:07.721Z,89
2022-12-26T00:59:08.478Z,89
2022-12-26T01:00:07.987Z,89
2022-12-26T01:01:09.184Z,89
2022-12-26T01:02:09.420Z,89
2022-12-26T01:03:08.746Z,89
2022-12-26T01:06:08.283Z,89
2022-12-26T01:07:08.599Z,89
2022-12-26T01:08:29.385Z,89
2022-12-26T01:09:08.016Z,89
2022-12-26T01:10:07.767Z,89
2022-12-26T01:11:08.560Z,89
2022-12-26T01:12:08.629Z,89
2022-12-26T01:13:08.069Z,89
2022-12-26T01:15:07.976Z,89
2022-12-26T01:16:08.342Z,89
2022-12-26T01:18:08.417Z,89
2022-12-26T01:19:07.758Z,89
2022-12-26T01:20:08.375Z,89
2022-12-26T01:21:07.153Z,89
2022-12-26T01:22:07.804Z,89
2022-12-26T01:23:08.530Z,89
2022-12-26T01:24:08.201Z,89
2022-12-26T01:25:08.395Z,89
2022-12-26T01:26:25.895Z,89
2022-12-26T01:28:08.561Z,89
2022-12-26T01:29:08.199Z,89
2022-12-26T01:30:08.771Z,89
2022-12-26T01:31:07.908Z,89
2022-12-26T01:32:09.003Z,89
2022-12-26T01:33:07.751Z,89
2022-12-26T01:34:07.105Z,89
2022-12-26T01:35:08.541Z,89
2022-12-26T01:36:08.161Z,89
2022-12-26T01:37:07.870Z,88
2022-12-26T01:38:08.402Z,89
2022-12-26T01:39:08.428Z,89
2022-12-26T01:40:08.780Z,89
2022-12-26T01:41:08.350Z,88
2022-12-26T01:42:07.806Z,88
2022-12-26T01:43:08.339Z,88
2022-12-26T01:44:08.029Z,88
2022-12-26T01:45:07.689Z,88
2022-12-26T01:46:08.208Z,88
2022-12-26T01:47:08.382Z,89
2022-12-26T01:48:07.867Z,89
2022-12-26T01:49:08.537Z,89
2022-12-26T01:50:07.953Z,89
2022-12-26T01:51:08.382Z,89
2022-12-26T01:52:07.768Z,89
2022-12-26T01:53:08.445Z,89
2022-12-26T01:54:48.163Z,89
2022-12-26T01:56:07.835Z,89
2022-12-26T01:57:07.491Z,89
2022-12-26T01:58:07.917Z,89
2022-12-26T02:01:08.767Z,88
2022-12-26T02:02:09.696Z,89
2022-12-26T02:03:08.535Z,89
2022-12-26T02:04:07.931Z,89
2022-12-26T02:05:07.001Z,89
2022-12-26T02:06:08.019Z,89
2022-12-26T02:07:08.394Z,89
2022-12-26T02:08:08.068Z,89
2022-12-26T02:09:06.728Z,89
2022-12-26T02:10:08.041Z,89
2022-12-26T02:11:08.474Z,89
2022-12-26T02:12:43.848Z,89
2022-12-26T02:14:08.260Z,89
2022-12-26T02:15:08.157Z,89
2022-12-26T02:16:08.479Z,89
2022-12-26T02:17:08.799Z,89
2022-12-26T02:19:08.380Z,89
2022-12-26T02:20:08.604Z,89
2022-12-26T02:21:07.830Z,89
2022-12-26T02:22:08.578Z,89
2022-12-26T02:23:08.190Z,89
2022-12-26T02:24:08.351Z,89
2022-12-26T02:25:07.093Z,89
2022-12-26T02:26:07.977Z,89
2022-12-26T02:27:08.633Z,89
2022-12-26T02:28:08.247Z,89
2022-12-26T02:29:07.632Z,89
2022-12-26T02:30:08.498Z,89
2022-12-26T02:31:09.221Z,89
2022-12-26T02:32:08.771Z,89
2022-12-26T02:33:08.505Z,89
2022-12-26T02:34:08.165Z,89
2022-12-26T02:36:07.793Z,89
2022-12-26T02:37:07.840Z,89
2022-12-26T02:38:08.696Z,89
2022-12-26T02:39:48.912Z,89
2022-12-26T02:42:07.693Z,89
2022-12-26T02:43:08.160Z,89
2022-12-26T02:44:08.314Z,89
2022-12-26T02:45:07.863Z,88
2022-12-26T02:47:08.515Z,88
2022-12-26T02:48:08.489Z,88
2022-12-26T02:49:07.864Z,88
2022-12-26T02:50:07.702Z,88
2022-12-26T02:51:08.113Z,88
2022-12-26T02:52:08.242Z,88
2022-12-26T02:53:07.649Z,88
2022-12-26T02:54:07.962Z,88
2022-12-26T02:55:08.150Z,88
2022-12-26T02:56:08.668Z,88
2022-12-26T02:57:07.830Z,88
2022-12-26T02:58:07.455Z,88
2022-12-26T02:59:08.092Z,88
2022-12-26T03:00:08.427Z,88
2022-12-26T03:01:09.008Z,88
2022-12-26T03:02:08.971Z,88
2022-12-26T03:03:08.111Z,88
2022-12-26T03:04:08.216Z,88
2022-12-26T03:05:08.513Z,88
2022-12-26T03:06:06.752Z,88
2022-12-26T03:07:07.970Z,88
2022-12-26T03:08:08.610Z,88
2022-12-26T03:09:06.719Z,88
2022-12-26T03:10:07.461Z,88
2022-12-26T03:11:08.557Z,88
2022-12-26T03:12:08.104Z,88
2022-12-26T03:13:08.181Z,88
2022-12-26T03:14:08.292Z,88
2022-12-26T03:15:08.138Z,88
2022-12-26T03:16:08.268Z,88
2022-12-26T03:17:08.700Z,88
2022-12-26T03:18:08.332Z,88
2022-12-26T03:19:08.286Z,88
2022-12-26T03:20:08.644Z,88
2022-12-26T03:21:07.637Z,88
2022-12-26T03:23:08.183Z,88
2022-12-26T03:24:08.469Z,88
2022-12-26T03:25:08.074Z,88
2022-12-26T03:28:08.054Z,88
2022-12-26T03:29:08.566Z,88
2022-12-26T03:30:07.717Z,88
2022-12-26T03:31:08.449Z,88
2022-12-26T03:32:08.420Z,88
2022-12-26T03:33:07.751Z,88
2022-12-26T03:34:08.198Z,88
2022-12-26T03:35:07.967Z,88
2022-12-26T03:36:07.771Z,88
2022-12-26T03:37:07.715Z,88
2022-12-26T03:38:08.100Z,88
2022-12-26T03:39:08.490Z,88
2022-12-26T03:41:07.897Z,88
2022-12-26T03:42:08.172Z,88
2022-12-26T03:43:08.178Z,88
2022-12-26T03:44:08.552Z,88
2022-12-26T03:46:08.805Z,88
2022-12-26T03:47:08.594Z,88
2022-12-26T03:48:07.961Z,87
2022-12-26T03:49:08.692Z,87
2022-12-26T03:50:08.298Z,87
2022-12-26T03:51:08.200Z,87
2022-12-26T03:52:08.481Z,87
2022-12-26T03:53:08.084Z,87
2022-12-26T03:54:08.617Z,87
2022-12-26T03:55:07.991Z,87
2022-12-26T03:56:08.215Z,87
2022-12-26T03:59:08.155Z,87
2022-12-26T04:00:08.680Z,87
2022-12-26T04:01:08.644Z,87
2022-12-26T04:02:08.547Z,87
2022-12-26T04:03:07.810Z,87
2022-12-26T04:04:08.378Z,87
2022-12-26T04:05:08.012Z,87
2022-12-26T04:06:07.730Z,87
2022-12-26T04:07:08.301Z,87
2022-12-26T04:08:09.489Z,87
2022-12-26T04:09:07.256Z,87
2022-12-26T04:10:07.461Z,87
2022-12-26T04:11:07.730Z,87
2022-12-26T04:12:08.417Z,87
2022-12-26T04:13:08.165Z,87
2022-12-26T04:14:07.738Z,87
2022-12-26T04:15:08.200Z,87
2022-12-26T04:16:08.394Z,87
2022-12-26T04:17:08.621Z,87
2022-12-26T04:18:07.974Z,87
2022-12-26T04:19:07.712Z,87
2022-12-26T04:20:08.029Z,87
2022-12-26T04:21:07.045Z,87
2022-12-26T04:22:08.743Z,87
2022-12-26T04:25:08.583Z,87
2022-12-26T04:26:08.637Z,87
2022-12-26T04:27:08.216Z,87
2022-12-26T04:28:08.139Z,87
2022-12-26T04:29:08.533Z,87
2022-12-26T04:30:08.180Z,87
2022-12-26T04:31:08.805Z,87
2022-12-26T04:34:08.546Z,87
2022-12-26T04:35:08.108Z,87
2022-12-26T04:36:08.099Z,87
2022-12-26T04:37:08.341Z,87
2022-12-26T04:38:07.720Z,87
2022-12-26T04:39:07.826Z,87
2022-12-26T04:40:08.033Z,87
2022-12-26T04:41:07.826Z,87
2022-12-26T04:42:07.822Z,87
2022-12-26T04:43:56.154Z,87
2022-12-26T04:46:08.033Z,87
2022-12-26T04:49:08.303Z,87
2022-12-26T04:50:07.876Z,87
2022-12-26T04:51:07.726Z,87
2022-12-26T04:52:08.500Z,87
2022-12-26T04:53:08.340Z,87
2022-12-26T04:54:07.810Z,87
2022-12-26T04:55:07.729Z,86
2022-12-26T04:56:08.171Z,86
2022-12-26T04:57:07.523Z,86
2022-12-26T04:58:08.524Z,86
2022-12-26T04:59:08.507Z,86
2022-12-26T05:00:07.713Z,86
2022-12-26T05:01:08.651Z,86
2022-12-26T05:02:08.346Z,86
2022-12-26T05:03:12.058Z,86
2022-12-26T05:04:08.635Z,86
2022-12-26T05:05:08.133Z,86
2022-12-26T05:06:08.111Z,86
2022-12-26T05:07:08.016Z,86
2022-12-26T05:08:07.678Z,86
2022-12-26T05:09:07.041Z,86
2022-12-26T05:10:08.471Z,86
2022-12-26T05:11:08.059Z,86
2022-12-26T05:12:08.152Z,86
2022-12-26T05:13:08.073Z,86
2022-12-26T05:14:08.694Z,86
2022-12-26T05:15:08.247Z,86
2022-12-26T05:16:08.207Z,86
2022-12-26T05:17:08.800Z,86
2022-12-26T05:18:08.301Z,86
2022-12-26T05:20:07.688Z,86
2022-12-26T05:21:08.084Z,86
2022-12-26T05:22:07.750Z,86
2022-12-26T05:23:08.611Z,86
2022-12-26T05:24:08.579Z,86
2022-12-26T05:25:08.644Z,86
2022-12-26T05:26:08.013Z,86
2022-12-26T05:27:08.185Z,86
2022-12-26T05:28:08.631Z,86
2022-12-26T05:29:07.764Z,85
2022-12-26T05:30:08.465Z,85
2022-12-26T05:31:08.405Z,85
2022-12-26T05:32:08.562Z,85
2022-12-26T05:34:08.332Z,85
2022-12-26T05:35:08.495Z,85
2022-12-26T05:36:08.635Z,85
2022-12-26T05:37:08.114Z,85
2022-12-26T05:38:08.642Z,85
2022-12-26T05:39:08.062Z,85
2022-12-26T05:40:08.670Z,85
2022-12-26T05:41:08.130Z,85
2022-12-26T05:42:07.914Z,85
2022-12-26T05:43:07.830Z,85
2022-12-26T05:44:07.925Z,85
2022-12-26T05:45:08.193Z,85
2022-12-26T05:46:07.955Z,85
2022-12-26T05:47:08.123Z,85
2022-12-26T05:48:08.052Z,85
2022-12-26T05:49:08.441Z,85
2022-12-26T05:50:07.981Z,85
2022-12-26T05:51:08.441Z,85
2022-12-26T05:52:08.148Z,85
2022-12-26T05:53:08.362Z,85
2022-12-26T05:54:07.501Z,85
2022-12-26T05:55:06.924Z,85
2022-12-26T05:56:08.331Z,85
2022-12-26T05:57:07.934Z,85
2022-12-26T06:00:08.397Z,84
2022-12-26T06:01:08.304Z,84
2022-12-26T06:03:09.019Z,84
2022-12-26T06:04:08.128Z,84
2022-12-26T06:05:08.488Z,84
2022-12-26T06:06:07.330Z,84
2022-12-26T06:07:07.834Z,84
2022-12-26T06:08:08.283Z,84
2022-12-26T06:09:07.967Z,84
2022-12-26T06:10:08.027Z,84
2022-12-26T06:11:08.155Z,84
2022-12-26T06:12:07.841Z,84
2022-12-26T06:13:08.451Z,84
2022-12-26T06:14:08.157Z,84
2022-12-26T06:15:08.677Z,84
2022-12-26T06:16:08.036Z,84
2022-12-26T06:17:08.021Z,84
2022-12-26T06:18:08.550Z,84
2022-12-26T06:19:08.106Z,84
2022-12-26T06:20:08.394Z,84
2022-12-26T06:21:08.121Z,84
2022-12-26T06:22:07.705Z,84
2022-12-26T06:23:07.692Z,84
2022-12-26T06:24:08.404Z,84
2022-12-26T06:25:08.632Z,84
2022-12-26T06:26:08.002Z,84
2022-12-26T06:27:08.645Z,84
2022-12-26T06:28:08.380Z,84
2022-12-26T06:29:07.979Z,84
2022-12-26T06:30:08.379Z,84
2022-12-26T06:31:08.061Z,84
2022-12-26T06:32:08.357Z,84
2022-12-26T06:33:07.745Z,84
2022-12-26T06:34:07.968Z,84
2022-12-26T06:35:08.511Z,84
2022-12-26T06:36:07.854Z,84
2022-12-26T06:37:08.595Z,84
2022-12-26T06:38:08.731Z,84
2022-12-26T06:39:08.638Z,84
2022-12-26T06:40:08.385Z,84
2022-12-26T06:41:07.607Z,84
2022-12-26T06:43:08.011Z,84
2022-12-26T06:44:10.537Z,84
2022-12-26T06:45:08.402Z,84
2022-12-26T06:46:07.954Z,84
2022-12-26T06:47:08.343Z,84
2022-12-26T06:48:07.638Z,84
2022-12-26T06:49:08.231Z,84
2022-12-26T06:50:08.284Z,84
2022-12-26T06:51:07.759Z,84
2022-12-26T06:52:07.931Z,84
2022-12-26T06:53:08.634Z,84
2022-12-26T06:57:07.663Z,84
2022-12-26T06:58:08.109Z,84
2022-12-26T06:59:07.839Z,84
2022-12-26T07:00:08.570Z,84
2022-12-26T07:01:09.269Z,84
2022-12-26T07:02:08.910Z,84
2022-12-26T07:03:08.131Z,84
2022-12-26T07:04:08.021Z,84
2022-12-26T07:05:07.468Z,84
2022-12-26T07:06:08.578Z,84
2022-12-26T07:07:07.829Z,84
2022-12-26T07:08:08.371Z,84
2022-12-26T07:09:08.294Z,84
2022-12-26T07:10:08.079Z,84
2022-12-26T07:11:08.489Z,84
2022-12-26T07:13:08.554Z,84
2022-12-26T07:14:08.493Z,84
2022-12-26T07:15:08.487Z,84
2022-12-26T07:16:08.140Z,84
2022-12-26T07:19:07.758Z,84
2022-12-26T07:20:08.482Z,84
2022-12-26T07:21:07.905Z,84
2022-12-26T07:22:07.797Z,84
2022-12-26T07:23:08.536Z,84
2022-12-26T07:24:08.021Z,84
2022-12-26T07:25:08.280Z,84
2022-12-26T07:26:07.819Z,84
2022-12-26T07:27:08.039Z,84
2022-12-26T07:28:08.082Z,84
2022-12-26T07:31:08.687Z,84
2022-12-26T07:32:08.703Z,84
2022-12-26T07:33:08.074Z,84
2022-12-26T07:34:07.966Z,84
2022-12-26T07:35:08.631Z,84
2022-12-26T07:36:08.211Z,84
2022-12-26T07:37:08.551Z,84
2022-12-26T07:38:08.562Z,84
2022-12-26T07:39:07.550Z,84
2022-12-26T07:40:07.915Z,83
2022-12-26T07:41:08.102Z,83
2022-12-26T07:42:07.677Z,83
2022-12-26T07:43:07.857Z,83
2022-12-26T07:44:08.088Z,83
2022-12-26T07:45:08.318Z,83
2022-12-26T07:46:07.967Z,83
2022-12-26T07:47:08.492Z,83
2022-12-26T07:48:08.578Z,83
2022-12-26T07:49:08.092Z,83
2022-12-26T07:50:08.066Z,83
2022-12-26T07:51:07.546Z,83
2022-12-26T07:52:08.030Z,83
2022-12-26T07:53:08.598Z,83
2022-12-26T07:54:16.207Z,83
2022-12-26T07:55:08.105Z,83
2022-12-26T07:56:08.367Z,83
2022-12-26T07:57:53.496Z,83
2022-12-26T07:59:08.139Z,83
2022-12-26T08:00:08.096Z,83
2022-12-26T08:01:08.073Z,83
2022-12-26T08:02:09.229Z,83
2022-12-26T08:03:14.567Z,83
2022-12-26T08:04:08.400Z,83
2022-12-26T08:05:07.673Z,83
2022-12-26T08:06:08.382Z,83
2022-12-26T08:07:07.860Z,83
2022-12-26T08:08:08.553Z,83
2022-12-26T08:09:08.475Z,83
2022-12-26T08:10:07.445Z,83
2022-12-26T08:11:08.576Z,83
2022-12-26T08:12:08.114Z,83
2022-12-26T08:13:07.718Z,83
2022-12-26T08:14:08.455Z,83
2022-12-26T08:15:08.146Z,83
2022-12-26T08:18:08.527Z,83
2022-12-26T08:19:08.161Z,83
2022-12-26T08:20:08.370Z,83
2022-12-26T08:21:08.553Z,83
2022-12-26T08:22:07.876Z,83
2022-12-26T08:23:08.209Z,83
2022-12-26T08:24:08.157Z,83
2022-12-26T08:25:07.731Z,83
2022-12-26T08:26:07.115Z,83
2022-12-26T08:27:08.039Z,83
2022-12-26T08:30:08.287Z,83
2022-12-26T08:31:08.121Z,83
2022-12-26T08:32:07.925Z,83
2022-12-26T08:33:07.723Z,83
2022-12-26T08:34:08.025Z,82
2022-12-26T08:35:08.199Z,82
2022-12-26T08:36:07.693Z,82
2022-12-26T08:37:07.165Z,82
2022-12-26T08:38:08.442Z,82
2022-12-26T08:41:08.248Z,82
2022-12-26T08:42:08.664Z,82
2022-12-26T08:44:30.518Z,82
2022-12-26T08:44:33.698Z,82
2022-12-26T08:45:07.948Z,81
2022-12-26T08:46:08.234Z,81
2022-12-26T08:47:07.707Z,81
2022-12-26T08:48:08.085Z,81
2022-12-26T08:49:07.542Z,81
2022-12-26T08:50:08.023Z,81
2022-12-26T08:51:07.827Z,81
2022-12-26T08:52:08.075Z,81
2022-12-26T08:53:07.641Z,81
2022-12-26T08:54:08.418Z,81
2022-12-26T08:55:08.116Z,81
2022-12-26T08:56:08.628Z,81
2022-12-26T08:57:08.445Z,81
2022-12-26T08:58:08.337Z,81
2022-12-26T08:59:07.843Z,81
2022-12-26T09:00:06.944Z,81
2022-12-26T09:01:08.265Z,81
2022-12-26T09:02:08.675Z,81
2022-12-26T09:03:08.573Z,81
2022-12-26T09:04:08.402Z,81
2022-12-26T09:05:08.597Z,81
2022-12-26T09:06:12.487Z,81
2022-12-26T09:07:07.867Z,81
2022-12-26T09:08:07.916Z,81
2022-12-26T09:09:08.331Z,81
2022-12-26T09:10:07.784Z,81
2022-12-26T09:11:08.455Z,81
2022-12-26T09:12:07.829Z,81
2022-12-26T09:13:08.606Z,81
2022-12-26T09:14:08.618Z,81
2022-12-26T09:15:08.539Z,80
2022-12-26T09:16:07.840Z,80
2022-12-26T09:17:08.808Z,80
2022-12-26T09:19:08.347Z,80
2022-12-26T09:20:08.153Z,80
2022-12-26T09:21:07.898Z,80
2022-12-26T09:22:08.496Z,80
2022-12-26T09:23:08.099Z,80
2022-12-26T09:24:07.841Z,80
2022-12-26T09:25:08.545Z,80
2022-12-26T09:26:08.025Z,80
2022-12-26T09:27:08.256Z,80
2022-12-26T09:28:08.432Z,80
2022-12-26T09:29:08.037Z,80
2022-12-26T09:30:08.299Z,80
2022-12-26T09:31:09.052Z,80
2022-12-26T09:32:08.463Z,80
2022-12-26T09:33:07.730Z,80
2022-12-26T09:34:07.908Z,80
2022-12-26T09:35:08.141Z,79
2022-12-26T09:36:17.461Z,79
2022-12-26T09:37:07.903Z,79
2022-12-26T09:39:08.068Z,79
2022-12-26T09:40:07.839Z,79
2022-12-26T09:41:08.129Z,79
2022-12-26T09:42:08.622Z,79
2022-12-26T09:43:07.722Z,79
2022-12-26T09:44:08.069Z,80
2022-12-26T09:45:08.701Z,80
2022-12-26T09:46:08.379Z,79
2022-12-26T09:47:08.262Z,79
2022-12-26T09:48:07.891Z,79
2022-12-26T09:49:07.091Z,79
2022-12-26T09:50:08.490Z,79
2022-12-26T09:51:07.860Z,79
2022-12-26T09:52:08.390Z,79
2022-12-26T09:54:08.146Z,79
2022-12-26T09:55:08.242Z,80
2022-12-26T09:56:10.843Z,80
2022-12-26T09:57:17.675Z,80
2022-12-26T09:58:08.013Z,80
2022-12-26T09:59:07.857Z,80
2022-12-26T10:00:08.307Z,80
2022-12-26T10:01:09.012Z,80
2022-12-26T10:02:09.072Z,80
2022-12-26T10:03:08.160Z,80
2022-12-26T10:04:08.301Z,80
2022-12-26T10:05:08.049Z,80
2022-12-26T10:06:07.955Z,80
2022-12-26T10:07:08.328Z,80
2022-12-26T10:08:08.695Z,80
2022-12-26T10:09:07.902Z,80
2022-12-26T10:10:07.529Z,80
2022-12-26T10:11:08.248Z,80
2022-12-26T10:12:08.159Z,80
2022-12-26T10:15:08.564Z,79
2022-12-26T10:16:08.355Z,79
2022-12-26T10:17:08.677Z,79
2022-12-26T10:18:08.257Z,79
2022-12-26T10:19:07.901Z,79
2022-12-26T10:20:08.108Z,79
2022-12-26T10:21:08.502Z,79
2022-12-26T10:22:08.161Z,79
2022-12-26T10:23:07.045Z,79
2022-12-26T10:24:08.227Z,78
2022-12-26T10:26:08.020Z,78
2022-12-26T10:27:08.426Z,78
2022-12-26T10:28:08.675Z,78
2022-12-26T10:29:07.858Z,78
2022-12-26T10:30:08.206Z,78
2022-12-26T10:31:08.810Z,78
2022-12-26T10:32:07.651Z,78
2022-12-26T10:33:07.890Z,78
2022-12-26T10:34:07.066Z,78
2022-12-26T10:35:07.751Z,78
2022-12-26T10:36:07.660Z,78
2022-12-26T10:39:08.581Z,77
2022-12-26T10:40:07.983Z,77
2022-12-26T10:41:08.442Z,77
2022-12-26T10:42:08.523Z,77
2022-12-26T10:43:08.113Z,77
2022-12-26T10:44:07.807Z,77
2022-12-26T10:46:08.707Z,77
2022-12-26T10:47:07.740Z,77
2022-12-26T10:48:08.141Z,77
2022-12-26T10:50:08.179Z,77
2022-12-26T10:51:07.795Z,77
2022-12-26T10:52:08.130Z,77
2022-12-26T10:53:07.956Z,77
2022-12-26T10:54:08.005Z,77
2022-12-26T10:55:39.243Z,77
2022-12-26T10:57:07.512Z,77
2022-12-26T10:58:08.653Z,77
2022-12-26T10:59:08.297Z,77
2022-12-26T11:01:08.428Z,77
2022-12-26T11:02:13.804Z,77
2022-12-26T11:03:09.127Z,76
2022-12-26T11:04:08.126Z,76
2022-12-26T11:06:11.993Z,76
2022-12-26T11:06:16.141Z,75
2022-12-26T11:07:08.633Z,75
2022-12-26T11:08:07.827Z,75
2022-12-26T11:09:08.360Z,75
2022-12-26T11:10:07.865Z,75
2022-12-26T11:11:07.767Z,75
2022-12-26T11:14:09.542Z,75
2022-12-26T11:15:08.192Z,75
2022-12-26T11:16:08.761Z,75
2022-12-26T11:17:07.595Z,75
2022-12-26T11:18:07.970Z,75
2022-12-26T11:19:08.622Z,75
2022-12-26T11:20:07.983Z,75
2022-12-26T11:21:14.911Z,75
2022-12-26T11:23:07.810Z,75
2022-12-26T11:25:07.622Z,75
2022-12-26T11:26:08.563Z,75
2022-12-26T11:28:08.131Z,75
2022-12-26T11:29:08.414Z,75
2022-12-26T11:30:08.642Z,75
2022-12-26T11:31:08.021Z,75
2022-12-26T11:32:08.143Z,75
2022-12-26T11:33:16.841Z,75
2022-12-26T11:34:08.112Z,75
2022-12-26T11:35:08.205Z,75
2022-12-26T11:36:08.485Z,75
2022-12-26T11:37:08.168Z,75
2022-12-26T11:38:08.159Z,75
2022-12-26T11:39:08.673Z,75
2022-12-26T11:40:08.500Z,75
2022-12-26T11:41:07.938Z,76
2022-12-26T11:42:08.042Z,76
2022-12-26T11:43:08.098Z,75
2022-12-26T11:44:07.673Z,75
2022-12-26T11:45:08.120Z,76
2022-12-26T11:46:08.130Z,76
2022-12-26T11:48:07.918Z,76
2022-12-26T11:50:08.067Z,76
2022-12-26T11:51:08.603Z,76
2022-12-26T11:52:07.875Z,76
2022-12-26T11:53:08.512Z,76
2022-12-26T11:54:07.658Z,76
2022-12-26T11:55:07.951Z,76
2022-12-26T11:56:07.356Z,76
2022-12-26T11:57:08.333Z,76
2022-12-26T11:58:07.735Z,76
2022-12-26T12:00:08.060Z,76
2022-12-26T12:01:08.448Z,76
2022-12-26T12:02:09.181Z,76
2022-12-26T12:03:08.070Z,76
2022-12-26T12:04:08.194Z,76
2022-12-26T12:05:08.453Z,77
2022-12-26T12:06:07.882Z,77
2022-12-26T12:07:07.312Z,77
2022-12-26T12:08:07.393Z,77
2022-12-26T12:09:12.317Z,77
2022-12-26T12:10:07.720Z,77
2022-12-26T12:11:08.057Z,77
2022-12-26T12:12:08.109Z,77
2022-12-26T12:13:08.406Z,77
2022-12-26T12:14:08.608Z,77
2022-12-26T12:15:07.914Z,77
2022-12-26T12:16:08.359Z,78
2022-12-26T12:17:08.251Z,78
2022-12-26T12:18:08.578Z,78
2022-12-26T12:19:07.247Z,78
2022-12-26T12:20:07.187Z,78
2022-12-26T12:21:07.612Z,78
2022-12-26T12:22:07.641Z,78
2022-12-26T12:23:07.793Z,78
2022-12-26T12:24:07.769Z,78
2022-12-26T12:25:08.027Z,78
2022-12-26T12:26:08.085Z,79
2022-12-26T12:27:11.190Z,79
2022-12-26T12:28:07.683Z,79
2022-12-26T12:29:08.627Z,79
2022-12-26T12:30:08.093Z,79
2022-12-26T12:31:07.864Z,79
2022-12-26T12:32:09.079Z,80
2022-12-26T12:33:08.343Z,80
2022-12-26T12:34:08.373Z,80
2022-12-26T12:35:08.325Z,80
2022-12-26T12:36:08.045Z,80
2022-12-26T12:37:08.310Z,80
2022-12-26T12:38:08.361Z,80
2022-12-26T12:39:08.392Z,81
2022-12-26T12:40:08.049Z,81
2022-12-26T12:41:07.907Z,81
2022-12-26T12:42:07.863Z,81
2022-12-26T12:43:07.549Z,81
2022-12-26T12:44:08.273Z,82
2022-12-26T12:45:08.071Z,82
2022-12-26T12:46:08.232Z,82
2022-12-26T12:49:07.852Z,82
2022-12-26T12:50:07.737Z,82
2022-12-26T12:51:08.672Z,82
2022-12-26T12:52:08.673Z,82
2022-12-26T12:53:08.510Z,83
2022-12-26T12:54:08.407Z,83
2022-12-26T12:55:07.837Z,83
2022-12-26T12:56:08.587Z,83
2022-12-26T12:57:08.308Z,83
2022-12-26T12:58:08.411Z,83
2022-12-26T12:59:08.372Z,83
2022-12-26T13:00:08.304Z,84
2022-12-26T13:02:23.181Z,84
2022-12-26T13:03:08.991Z,84
2022-12-26T13:04:08.493Z,84
2022-12-26T13:05:08.540Z,84
2022-12-26T13:06:08.481Z,84
2022-12-26T13:07:07.503Z,84
2022-12-26T13:08:07.894Z,84
2022-12-26T13:09:07.629Z,84
2022-12-26T13:10:08.140Z,84
2022-12-26T13:11:08.755Z,84
2022-12-26T13:12:08.632Z,84
2022-12-26T13:13:08.583Z,84
2022-12-26T13:14:06.816Z,84
2022-12-26T13:15:08.359Z,84
2022-12-26T13:16:07.790Z,84
2022-12-26T13:17:08.189Z,84
2022-12-26T13:18:08.010Z,84
2022-12-26T13:19:08.719Z,84
2022-12-26T13:20:09.620Z,84
2022-12-26T13:21:08.341Z,84
2022-12-26T13:22:08.227Z,84
2022-12-26T13:23:08.243Z,84
2022-12-26T13:24:07.632Z,84
2022-12-26T13:25:08.859Z,84
2022-12-26T13:26:11.250Z,84
2022-12-26T13:27:08.442Z,84
2022-12-26T13:28:08.450Z,84
2022-12-26T13:29:08.412Z,84
2022-12-26T13:30:08.560Z,84
2022-12-26T13:31:08.438Z,85
2022-12-26T13:32:08.562Z,85
2022-12-26T13:33:08.388Z,85
2022-12-26T13:34:08.378Z,85
2022-12-26T13:35:08.142Z,85
2022-12-26T13:36:08.147Z,85
2022-12-26T13:37:08.231Z,85
2022-12-26T13:38:08.068Z,85
2022-12-26T13:39:08.051Z,85
2022-12-26T13:40:07.882Z,85
2022-12-26T13:41:08.057Z,85
2022-12-26T13:42:08.198Z,85
2022-12-26T13:43:07.660Z,85
2022-12-26T13:44:07.822Z,85
2022-12-26T13:45:08.594Z,85
2022-12-26T13:46:08.435Z,85
2022-12-26T13:47:08.299Z,85
2022-12-26T13:48:08.455Z,85
2022-12-26T13:49:08.615Z,85
2022-12-26T13:50:08.563Z,85
2022-12-26T13:51:07.771Z,85
2022-12-26T13:54:08.556Z,85
2022-12-26T13:55:08.170Z,85
2022-12-26T13:56:07.988Z,85
2022-12-26T13:57:07.795Z,85
2022-12-26T13:58:08.381Z,85
2022-12-26T13:59:07.883Z,85
2022-12-26T14:00:08.000Z,85
2022-12-26T14:01:08.187Z,85
2022-12-26T14:02:24.966Z,86
2022-12-26T14:03:26.672Z,86
2022-12-26T14:05:08.269Z,86
2022-12-26T14:06:07.855Z,86
2022-12-26T14:07:08.532Z,86
2022-12-26T14:08:07.759Z,86
2022-12-26T14:10:08.326Z,86
2022-12-26T14:11:08.240Z,86
2022-12-26T14:12:07.755Z,86
2022-12-26T14:13:07.631Z,86
2022-12-26T14:14:07.748Z,86
2022-12-26T14:16:08.501Z,86
2022-12-26T14:17:07.519Z,86
2022-12-26T14:18:08.550Z,86
2022-12-26T14:19:08.207Z,86
2022-12-26T14:20:08.213Z,86
2022-12-26T14:23:08.435Z,86
2022-12-26T14:24:08.335Z,86
2022-12-26T14:25:08.376Z,86
2022-12-26T14:26:08.335Z,86
2022-12-26T14:27:08.125Z,86
2022-12-26T14:28:08.197Z,86
2022-12-26T14:29:08.305Z,86
2022-12-26T14:30:08.104Z,86
2022-12-26T14:31:08.093Z,87
2022-12-26T14:32:07.987Z,86
2022-12-26T14:33:08.253Z,87
2022-12-26T14:34:15.139Z,87
2022-12-26T14:35:07.740Z,87
2022-12-26T14:36:08.285Z,87
2022-12-26T14:37:08.384Z,87
2022-12-26T14:38:08.173Z,87
2022-12-26T14:39:07.997Z,87
2022-12-26T14:40:08.132Z,87
2022-12-26T14:41:08.480Z,87
2022-12-26T14:42:06.747Z,87
2022-12-26T14:43:08.671Z,87
2022-12-26T14:44:09.177Z,87
2022-12-26T14:45:08.486Z,87
2022-12-26T14:46:08.370Z,87
2022-12-26T14:47:08.376Z,87
2022-12-26T14:48:08.553Z,87
2022-12-26T14:49:07.901Z,87
2022-12-26T14:50:08.160Z,87
2022-12-26T14:51:08.180Z,87
2022-12-26T14:53:07.894Z,87
2022-12-26T14:54:08.892Z,87
2022-12-26T14:55:08.877Z,87
2022-12-26T14:56:08.312Z,87
2022-12-26T15:00:10.293Z,87
2022-12-26T15:01:08.071Z,87
2022-12-26T15:02:08.763Z,87
2022-12-26T15:03:07.439Z,87
2022-12-26T15:04:08.626Z,87
2022-12-26T15:07:07.726Z,87
2022-12-26T15:10:08.606Z,87
2022-12-26T15:11:07.710Z,87
2022-12-26T15:12:07.584Z,87
2022-12-26T15:13:07.888Z,87
2022-12-26T15:14:07.879Z,87
2022-12-26T15:15:06.797Z,87
2022-12-26T15:16:08.475Z,87
2022-12-26T15:17:08.217Z,87
2022-12-26T15:18:08.627Z,87
2022-12-26T15:19:08.390Z,87
2022-12-26T15:20:08.603Z,87
2022-12-26T15:21:07.789Z,88
2022-12-26T15:22:07.499Z,88
2022-12-26T15:23:07.641Z,88
2022-12-26T15:24:08.453Z,88
2022-12-26T15:25:25.643Z,88
2022-12-26T15:26:08.192Z,88
2022-12-26T15:27:06.613Z,88
2022-12-26T15:28:15.899Z,88
2022-12-26T15:29:07.682Z,88
2022-12-26T15:30:08.635Z,88
2022-12-26T15:31:08.187Z,88
2022-12-26T15:34:07.985Z,88
2022-12-26T15:35:08.696Z,88
2022-12-26T15:36:10.078Z,88
2022-12-26T15:37:08.643Z,88
2022-12-26T15:38:08.571Z,88
2022-12-26T15:39:08.499Z,88
2022-12-26T15:40:07.953Z,88
2022-12-26T15:41:08.585Z,88
2022-12-26T15:42:08.053Z,88
2022-12-26T15:45:08.309Z,88
2022-12-26T15:46:08.492Z,88
2022-12-26T15:47:08.363Z,88
2022-12-26T15:48:08.172Z,88
2022-12-26T15:49:08.083Z,88
2022-12-26T15:50:08.232Z,88
2022-12-26T15:51:08.192Z,88
2022-12-26T15:52:08.455Z,88
2022-12-26T15:53:08.549Z,88
2022-12-26T15:54:08.756Z,88
2022-12-26T15:55:07.720Z,89
2022-12-26T15:56:08.686Z,89
2022-12-26T15:57:08.620Z,89
2022-12-26T15:58:08.413Z,89
2022-12-26T15:59:15.199Z,89
2022-12-26T16:00:08.477Z,89
2022-12-26T16:01:09.079Z,89
2022-12-26T16:02:08.489Z,89